Time;durP1;ratioP1;P1;durP2;ratioP2;P2;SDS_P1;SDS_P2;PMS_P1;PMS_P2;Temp;Humidity;BMP_temperature;BMP_pressure;BME280_temperature;BME280_humidity;BME280_pressure;Samples;Min_cycle;Max_cycle;Signal;HPM_P1;HPM_P2
2024/01/14 00:01:45;;;;;;;67.07;26.00;;;-2.30;99.90;;;;;;5017537;28;20029;-78
2024/01/14 00:04:11;;;;;;;34.33;16.75;;;-2.30;99.90;;;;;;5015233;28;20046;-78
2024/01/14 00:06:36;;;;;;;34.53;16.70;;;-2.30;99.90;;;;;;5021532;28;20431;-78
2024/01/14 00:09:02;;;;;;;27.40;14.23;;;-2.40;99.90;;;;;;5017978;28;20437;-78
2024/01/14 00:11:28;;;;;;;26.25;14.98;;;-2.30;99.90;;;;;;5016148;28;20033;-78
2024/01/14 00:13:54;;;;;;;73.40;29.05;;;-2.40;99.90;;;;;;5025621;28;20021;-78
2024/01/14 00:16:19;;;;;;;36.70;17.67;;;-2.30;99.90;;;;;;5030563;28;20021;-78
2024/01/14 00:18:45;;;;;;;29.15;15.80;;;-2.30;99.90;;;;;;5019757;28;20022;-78
2024/01/14 00:21:11;;;;;;;30.80;15.35;;;-2.30;99.90;;;;;;5026490;28;20478;-78
2024/01/14 00:23:36;;;;;;;32.55;16.50;;;-2.30;99.90;;;;;;5016684;28;20052;-78
2024/01/14 00:26:02;;;;;;;39.55;18.35;;;-2.30;99.90;;;;;;5018094;28;20542;-78
2024/01/14 00:28:28;;;;;;;30.23;16.13;;;-2.30;99.90;;;;;;5013130;28;20036;-78
2024/01/14 00:30:53;;;;;;;61.10;26.02;;;-2.30;99.90;;;;;;5020875;28;20029;-78
2024/01/14 00:33:19;;;;;;;42.50;18.17;;;-2.30;99.90;;;;;;5020482;28;20018;-78
2024/01/14 00:35:45;;;;;;;47.10;22.23;;;-2.20;99.90;;;;;;5027311;28;20075;-79
2024/01/14 00:38:13;;;;;;;44.63;20.13;;;-2.20;99.90;;;;;;5023019;28;20057;-78
2024/01/14 00:40:39;;;;;;;34.72;15.75;;;-2.20;99.90;;;;;;5021311;28;20032;-79
2024/01/14 00:43:04;;;;;;;27.33;14.77;;;-2.20;99.90;;;;;;5007328;28;20030;-78
2024/01/14 00:45:30;;;;;;;31.23;15.38;;;-2.20;99.90;;;;;;5019800;28;20018;-78
2024/01/14 00:47:56;;;;;;;24.23;14.63;;;-2.20;99.90;;;;;;5023034;28;20528;-78
2024/01/14 00:50:21;;;;;;;24.52;14.55;;;-2.20;99.90;;;;;;5027368;28;20021;-78
2024/01/14 00:52:47;;;;;;;32.28;16.65;;;-2.10;99.90;;;;;;5023050;28;20022;-78
2024/01/14 00:55:13;;;;;;;26.15;15.07;;;-2.10;99.90;;;;;;5027683;28;20398;-78
2024/01/14 00:57:40;;;;;;;28.00;15.73;;;-2.00;99.90;;;;;;5023029;28;20040;-79
2024/01/14 01:00:09;;;;;;;23.50;13.13;;;-2.10;99.90;;;;;;5026643;28;20109;-79
2024/01/14 01:02:35;;;;;;;29.80;13.65;;;-2.00;99.90;;;;;;5022991;28;20445;-79
2024/01/14 01:05:01;;;;;;;21.90;13.07;;;-2.00;99.90;;;;;;5027838;28;20116;-79
2024/01/14 01:07:27;;;;;;;24.23;13.60;;;-2.00;99.90;;;;;;5020932;27;20032;-78
2024/01/14 01:09:52;;;;;;;21.40;13.15;;;-2.00;99.90;;;;;;5026929;28;20018;-79
2024/01/14 01:12:18;;;;;;;25.60;12.57;;;-1.90;99.90;;;;;;5023783;28;20030;-79
2024/01/14 01:14:44;;;;;;;22.88;12.27;;;-2.00;99.90;;;;;;5025882;28;20053;-78
2024/01/14 01:17:10;;;;;;;22.05;13.23;;;-1.90;99.90;;;;;;5022824;28;20064;-78
2024/01/14 01:19:36;;;;;;;21.88;13.13;;;-1.90;99.90;;;;;;5028382;28;20053;-78
2024/01/14 01:22:02;;;;;;;24.73;12.63;;;-1.90;99.90;;;;;;5023086;28;20049;-78
2024/01/14 01:24:28;;;;;;;21.40;12.43;;;-1.90;99.90;;;;;;5028347;28;20037;-78
2024/01/14 01:26:53;;;;;;;20.67;11.95;;;-1.90;99.90;;;;;;5014028;28;20022;-78
2024/01/14 01:29:19;;;;;;;24.52;12.30;;;-1.90;99.90;;;;;;5016839;28;20062;-78
2024/01/14 01:31:45;;;;;;;22.20;11.85;;;-1.90;99.90;;;;;;5030116;28;20033;-78
2024/01/14 01:34:10;;;;;;;18.27;11.48;;;-1.90;99.90;;;;;;5030637;28;20026;-78
2024/01/14 01:36:36;;;;;;;20.42;13.35;;;-1.90;99.90;;;;;;5018726;28;20471;-78
2024/01/14 01:39:03;;;;;;;21.25;12.38;;;-1.90;99.90;;;;;;5003230;28;20071;-78
2024/01/14 01:41:28;;;;;;;21.95;12.20;;;-1.80;99.90;;;;;;5010771;28;20485;-78
2024/01/14 01:43:54;;;;;;;19.80;10.90;;;-1.80;99.90;;;;;;5010510;28;20101;-78
2024/01/14 01:46:19;;;;;;;20.20;12.25;;;-1.80;99.90;;;;;;5023332;28;20086;-78
2024/01/14 01:48:46;;;;;;;22.25;12.35;;;-1.80;99.90;;;;;;5023470;28;20102;-78
2024/01/14 01:51:13;;;;;;;21.52;12.98;;;-1.80;99.90;;;;;;5023065;28;20028;-78
2024/01/14 01:53:40;;;;;;;20.70;12.93;;;-1.80;99.90;;;;;;5005466;28;20025;-78
2024/01/14 01:56:06;;;;;;;24.73;12.68;;;-1.70;99.90;;;;;;5030288;28;20021;-78
2024/01/14 01:58:31;;;;;;;19.48;12.25;;;-1.70;99.90;;;;;;5029527;28;20037;-78
2024/01/14 02:00:57;;;;;;;18.30;10.65;;;-1.70;99.90;;;;;;5030623;28;20033;-78
2024/01/14 02:03:24;;;;;;;22.98;12.25;;;-1.70;99.90;;;;;;5029230;28;20030;-78
2024/01/14 02:05:54;;;;;;;23.83;12.48;;;-1.80;99.90;;;;;;5016913;28;20376;-78
2024/01/14 02:08:20;;;;;;;23.63;13.48;;;-1.80;99.90;;;;;;5026016;28;20030;-78
2024/01/14 02:10:45;;;;;;;20.05;11.93;;;-1.80;99.90;;;;;;5011915;28;20030;-77
2024/01/14 02:13:11;;;;;;;22.33;13.18;;;-1.80;99.90;;;;;;5019648;28;20014;-78
2024/01/14 02:15:37;;;;;;;20.27;11.43;;;-1.80;99.90;;;;;;5028468;28;20109;-77
2024/01/14 02:18:03;;;;;;;25.15;12.27;;;-1.80;99.90;;;;;;5017674;28;20034;-77
2024/01/14 02:20:28;;;;;;;25.05;12.40;;;-1.80;99.90;;;;;;5029403;27;20018;-77
2024/01/14 02:22:56;;;;;;;24.35;12.70;;;-1.80;99.90;;;;;;5028978;28;20101;-78
2024/01/14 02:25:22;;;;;;;21.20;12.00;;;-1.80;99.90;;;;;;5027937;28;20101;-78
2024/01/14 02:27:49;;;;;;;24.20;12.95;;;-1.80;99.90;;;;;;5010943;28;20026;-78
2024/01/14 02:30:15;;;;;;;25.85;12.73;;;-1.80;99.90;;;;;;5011364;28;20033;-78
2024/01/14 02:32:41;;;;;;;28.05;12.60;;;-1.80;99.90;;;;;;5029030;28;20025;-78
2024/01/14 02:35:07;;;;;;;21.15;11.43;;;-1.80;99.90;;;;;;5030017;28;20470;-78
2024/01/14 02:37:33;;;;;;;21.05;12.40;;;-1.80;99.90;;;;;;5020409;27;20035;-78
2024/01/14 02:39:59;;;;;;;18.60;12.20;;;-1.80;99.90;;;;;;5017211;28;20060;-77
2024/01/14 02:42:24;;;;;;;21.27;11.73;;;-1.80;99.90;;;;;;5029118;28;20049;-77
2024/01/14 02:44:50;;;;;;;24.90;13.35;;;-1.80;99.90;;;;;;5028323;28;20463;-78
2024/01/14 02:47:16;;;;;;;21.30;11.50;;;-1.80;99.90;;;;;;5028710;28;20053;-78
2024/01/14 02:49:41;;;;;;;18.13;11.00;;;-1.80;99.90;;;;;;5027987;28;20035;-78
2024/01/14 02:52:07;;;;;;;19.23;12.05;;;-1.80;99.90;;;;;;5020596;28;20021;-78
2024/01/14 02:54:33;;;;;;;26.65;13.55;;;-1.70;99.90;;;;;;5015067;28;20071;-77
2024/01/14 02:56:58;;;;;;;22.05;12.30;;;-1.80;99.90;;;;;;5027942;28;20034;-79
2024/01/14 02:59:24;;;;;;;24.90;11.73;;;-1.70;99.90;;;;;;5011493;28;20029;-78
2024/01/14 03:01:50;;;;;;;23.98;13.02;;;-1.70;99.90;;;;;;5014598;28;20026;-79
2024/01/14 03:04:15;;;;;;;19.27;12.18;;;-1.70;99.90;;;;;;5019071;28;20049;-78
2024/01/14 03:06:41;;;;;;;23.45;12.23;;;-1.70;99.90;;;;;;5021532;28;20471;-78
2024/01/14 03:09:07;;;;;;;19.60;11.82;;;-1.70;99.90;;;;;;5018774;28;20044;-78
2024/01/14 03:11:33;;;;;;;22.60;11.40;;;-1.70;99.90;;;;;;5021716;28;20026;-79
2024/01/14 03:13:59;;;;;;;20.30;11.43;;;-1.70;99.90;;;;;;5021564;28;20017;-78
2024/01/14 03:16:24;;;;;;;21.70;11.10;;;-1.70;99.90;;;;;;5019659;28;20029;-78
2024/01/14 03:18:50;;;;;;;21.92;12.55;;;-1.70;99.90;;;;;;5019234;28;20426;-78
2024/01/14 03:21:19;;;;;;;21.75;11.10;;;-1.70;99.90;;;;;;5018035;28;20026;-79
2024/01/14 03:23:45;;;;;;;18.00;10.63;;;-1.70;99.90;;;;;;5019395;28;20029;-79
2024/01/14 03:26:11;;;;;;;20.63;12.15;;;-1.70;99.90;;;;;;5015269;28;20029;-79
2024/01/14 03:28:37;;;;;;;22.77;11.95;;;-1.70;99.90;;;;;;5013787;28;20027;-78
2024/01/14 03:31:03;;;;;;;16.45;11.52;;;-1.70;99.90;;;;;;5022774;28;20074;-79
2024/01/14 03:33:29;;;;;;;20.40;11.70;;;-1.70;99.90;;;;;;5018928;28;20018;-79
2024/01/14 03:35:54;;;;;;;19.80;12.15;;;-1.80;99.90;;;;;;5025021;28;20022;-79
2024/01/14 03:38:20;;;;;;;18.38;11.15;;;-1.70;99.90;;;;;;5021170;28;20066;-78
2024/01/14 03:40:46;;;;;;;21.75;10.82;;;-1.80;99.90;;;;;;5023616;28;20078;-78
2024/01/14 03:43:12;;;;;;;22.05;12.23;;;-1.80;99.90;;;;;;5024368;28;20057;-79
2024/01/14 03:45:37;;;;;;;24.35;12.40;;;-1.80;99.90;;;;;;5032187;28;20022;-79
2024/01/14 03:48:04;;;;;;;22.50;13.00;;;-1.80;99.90;;;;;;5025291;28;20022;-79
2024/01/14 03:50:29;;;;;;;23.08;12.43;;;-1.90;99.90;;;;;;5013272;28;20036;-79
2024/01/14 03:52:55;;;;;;;24.23;13.07;;;-1.80;99.90;;;;;;5016717;28;20379;-79
2024/01/14 03:55:20;;;;;;;21.85;12.38;;;-1.80;99.90;;;;;;5023355;28;20030;-79
2024/01/14 03:57:46;;;;;;;23.65;12.18;;;-1.80;99.90;;;;;;5016279;28;20572;-78
2024/01/14 04:00:13;;;;;;;27.33;14.18;;;-1.80;99.90;;;;;;5013079;28;20033;-79
2024/01/14 04:02:39;;;;;;;23.05;11.82;;;-1.90;99.90;;;;;;5021364;28;20026;-79
2024/01/14 04:05:05;;;;;;;27.85;14.43;;;-1.90;99.90;;;;;;5027925;28;20057;-79
2024/01/14 04:07:30;;;;;;;26.73;14.90;;;-1.90;99.90;;;;;;5018119;28;20022;-79
2024/01/14 04:09:56;;;;;;;22.17;12.95;;;-1.90;99.90;;;;;;5025471;28;20437;-79
2024/01/14 04:12:22;;;;;;;21.88;12.70;;;-1.90;99.90;;;;;;5026412;28;20068;-79
2024/01/14 04:14:48;;;;;;;24.27;12.80;;;-1.90;99.90;;;;;;5023944;28;20494;-80
2024/01/14 04:17:13;;;;;;;24.25;13.90;;;-1.90;99.90;;;;;;5024629;28;20064;-79
2024/01/14 04:19:40;;;;;;;25.33;14.93;;;-1.90;99.90;;;;;;5020593;28;20069;-78
2024/01/14 04:22:06;;;;;;;25.25;14.68;;;-2.00;99.90;;;;;;5025715;28;20029;-79
2024/01/14 04:24:31;;;;;;;26.33;14.55;;;-1.90;99.90;;;;;;5015025;28;20022;-78
2024/01/14 04:26:57;;;;;;;25.83;13.15;;;-1.90;99.90;;;;;;5011744;28;20026;-78
2024/01/14 04:29:23;;;;;;;26.77;13.30;;;-1.90;99.90;;;;;;5011819;28;20021;-78
2024/01/14 04:31:48;;;;;;;23.35;12.88;;;-2.00;99.90;;;;;;5020121;28;20026;-79
2024/01/14 04:34:14;;;;;;;24.73;13.43;;;-1.90;99.90;;;;;;5019212;28;20078;-79
2024/01/14 04:36:40;;;;;;;26.98;14.13;;;-1.90;99.90;;;;;;5005092;28;20025;-78
2024/01/14 04:39:05;;;;;;;22.42;12.98;;;-1.90;99.90;;;;;;5023066;28;20022;-79
2024/01/14 04:41:31;;;;;;;23.65;14.02;;;-2.00;99.90;;;;;;5023114;28;20018;-78
2024/01/14 04:43:56;;;;;;;28.70;14.32;;;-1.90;99.90;;;;;;5016124;28;20445;-78
2024/01/14 04:46:22;;;;;;;29.17;14.13;;;-1.90;99.90;;;;;;5011411;28;20025;-78
2024/01/14 04:48:48;;;;;;;25.85;13.43;;;-1.90;99.90;;;;;;5016539;28;20115;-79
2024/01/14 04:51:13;;;;;;;25.30;13.18;;;-1.90;99.90;;;;;;5013775;28;20117;-79
2024/01/14 04:53:39;;;;;;;25.80;14.60;;;-1.90;99.90;;;;;;5018995;28;20025;-78
2024/01/14 04:56:10;;;;;;;28.58;14.77;;;-1.90;99.90;;;;;;5012368;28;20079;-79
2024/01/14 04:58:36;;;;;;;23.25;14.18;;;-1.90;99.90;;;;;;5012357;28;20038;-79
2024/01/14 05:01:02;;;;;;;27.20;14.88;;;-1.90;99.90;;;;;;5013271;28;20479;-79
2024/01/14 05:03:28;;;;;;;26.30;14.07;;;-1.90;99.90;;;;;;5015306;28;20075;-79
2024/01/14 05:05:53;;;;;;;24.75;12.90;;;-1.90;99.90;;;;;;5014509;28;20046;-79
2024/01/14 05:08:19;;;;;;;27.95;15.07;;;-1.90;99.90;;;;;;5015274;28;20044;-78
2024/01/14 05:10:44;;;;;;;24.42;13.52;;;-1.90;99.90;;;;;;5013220;28;20116;-79
2024/01/14 05:13:11;;;;;;;26.90;13.95;;;-1.90;99.90;;;;;;5015381;28;20021;-79
2024/01/14 05:15:38;;;;;;;28.13;13.75;;;-1.90;99.90;;;;;;5012384;28;20022;-78
2024/01/14 05:18:04;;;;;;;27.05;14.48;;;-1.90;99.90;;;;;;5011254;28;20406;-79
2024/01/14 05:20:29;;;;;;;25.35;14.13;;;-1.90;99.90;;;;;;5011436;28;20030;-78
2024/01/14 05:22:55;;;;;;;28.77;13.18;;;-1.90;99.90;;;;;;5012584;28;20517;-78
2024/01/14 05:25:21;;;;;;;27.52;14.57;;;-1.90;99.90;;;;;;5016953;28;20113;-79
2024/01/14 05:27:47;;;;;;;25.00;13.75;;;-1.90;99.90;;;;;;5021207;28;20035;-80
2024/01/14 05:30:13;;;;;;;30.52;15.27;;;-1.90;99.90;;;;;;5015897;28;20029;-78
2024/01/14 05:32:39;;;;;;;28.33;14.10;;;-1.90;99.90;;;;;;5015355;28;20062;-78
2024/01/14 05:35:05;;;;;;;25.02;13.85;;;-1.90;99.90;;;;;;5013407;28;20093;-79
2024/01/14 05:37:31;;;;;;;29.67;15.60;;;-1.90;99.90;;;;;;5021192;28;20439;-79
2024/01/14 05:39:57;;;;;;;25.38;14.13;;;-1.90;99.90;;;;;;5025299;28;20053;-79
2024/01/14 05:42:22;;;;;;;28.63;14.02;;;-1.90;99.90;;;;;;5026369;28;20041;-79
2024/01/14 05:44:48;;;;;;;27.35;15.02;;;-1.90;99.90;;;;;;5028581;28;20025;-79
2024/01/14 05:47:14;;;;;;;30.48;15.50;;;-1.90;99.90;;;;;;5025502;28;20013;-80
2024/01/14 05:49:40;;;;;;;28.88;14.77;;;-1.90;99.90;;;;;;5018507;28;20026;-80
2024/01/14 05:52:05;;;;;;;25.80;14.27;;;-1.90;99.90;;;;;;5024638;28;20025;-79
2024/01/14 05:54:31;;;;;;;25.48;13.80;;;-1.90;99.90;;;;;;5025728;28;20030;-79
2024/01/14 05:56:57;;;;;;;28.38;14.95;;;-1.90;99.90;;;;;;5019174;28;20030;-79
2024/01/14 05:59:23;;;;;;;27.55;14.05;;;-1.90;99.90;;;;;;5010832;28;20033;-79
2024/01/14 06:01:49;;;;;;;29.08;15.38;;;-1.90;99.90;;;;;;5011375;28;20464;-79
2024/01/14 06:04:15;;;;;;;28.05;14.93;;;-1.90;99.90;;;;;;5010128;28;20034;-79
2024/01/14 06:06:40;;;;;;;31.60;16.45;;;-1.80;99.90;;;;;;5010207;28;20018;-78
2024/01/14 06:09:06;;;;;;;35.55;18.15;;;-1.80;99.90;;;;;;5020218;28;20422;-79
2024/01/14 06:11:32;;;;;;;26.95;13.98;;;-1.80;99.90;;;;;;5015679;28;20100;-78
2024/01/14 06:13:57;;;;;;;24.58;14.02;;;-1.90;99.90;;;;;;5021962;28;20022;-79
2024/01/14 06:16:25;;;;;;;27.92;14.30;;;-1.90;99.90;;;;;;5019049;28;20550;-78
2024/01/14 06:18:50;;;;;;;28.45;13.10;;;-1.90;99.90;;;;;;5015306;28;20092;-78
2024/01/14 06:21:16;;;;;;;30.20;15.70;;;-1.90;99.90;;;;;;5013593;28;20033;-79
2024/01/14 06:23:42;;;;;;;29.35;14.02;;;-1.90;99.90;;;;;;5011829;28;20030;-80
2024/01/14 06:26:08;;;;;;;27.27;15.52;;;-1.80;99.90;;;;;;5015467;28;20018;-79
2024/01/14 06:28:33;;;;;;;34.80;16.55;;;-1.80;99.90;;;;;;5017092;28;20030;-79
2024/01/14 06:30:59;;;;;;;28.60;15.15;;;-1.80;99.90;;;;;;5014375;28;20022;-79
2024/01/14 06:33:24;;;;;;;24.73;13.38;;;-1.80;99.90;;;;;;5020855;28;20036;-78
2024/01/14 06:35:50;;;;;;;26.45;13.77;;;-1.80;99.90;;;;;;5021805;28;20017;-78
2024/01/14 06:38:16;;;;;;;28.90;15.27;;;-1.80;99.90;;;;;;5020833;28;20037;-78
2024/01/14 06:40:41;;;;;;;27.55;14.68;;;-1.80;99.90;;;;;;5019452;28;20048;-79
2024/01/14 06:43:08;;;;;;;28.48;15.02;;;-1.80;99.90;;;;;;5021828;28;20664;-79
2024/01/14 06:45:33;;;;;;;33.85;15.93;;;-1.80;99.90;;;;;;5015794;28;20105;-79
2024/01/14 06:47:59;;;;;;;28.63;15.27;;;-1.80;99.90;;;;;;5024962;28;20116;-79
2024/01/14 06:50:25;;;;;;;25.00;13.77;;;-1.80;99.90;;;;;;5011121;28;20037;-79
2024/01/14 06:52:51;;;;;;;28.75;14.40;;;-1.80;99.90;;;;;;5006457;28;20034;-79
2024/01/14 06:55:17;;;;;;;37.13;16.63;;;-1.80;99.90;;;;;;5017860;28;20014;-78
2024/01/14 06:57:42;;;;;;;26.85;14.45;;;-1.80;99.90;;;;;;5018101;28;20048;-79
2024/01/14 07:00:09;;;;;;;32.15;14.82;;;-1.80;99.90;;;;;;5012304;28;20026;-78
2024/01/14 07:02:35;;;;;;;28.77;15.57;;;-1.80;99.90;;;;;;4999495;28;20038;-78
2024/01/14 07:05:01;;;;;;;30.38;16.45;;;-1.80;99.90;;;;;;5022280;28;20042;-78
2024/01/14 07:07:27;;;;;;;31.15;15.77;;;-1.80;99.90;;;;;;5022616;28;20080;-79
2024/01/14 07:09:53;;;;;;;31.67;15.43;;;-1.80;99.90;;;;;;5016233;28;20036;-80
2024/01/14 07:12:19;;;;;;;29.90;15.02;;;-1.80;99.90;;;;;;5011421;28;20031;-81
2024/01/14 07:14:44;;;;;;;29.40;15.82;;;-1.80;99.90;;;;;;5015211;28;20030;-79
2024/01/14 07:17:10;;;;;;;33.17;15.77;;;-1.80;99.90;;;;;;5018493;28;20490;-79
2024/01/14 07:19:36;;;;;;;32.40;17.52;;;-1.70;99.90;;;;;;5024876;28;20458;-79
2024/01/14 07:22:04;;;;;;;35.63;16.52;;;-1.70;99.90;;;;;;5013174;28;20056;-79
2024/01/14 07:24:30;;;;;;;33.67;16.95;;;-1.70;99.90;;;;;;5019517;28;20100;-78
2024/01/14 07:26:56;;;;;;;30.08;14.38;;;-1.70;99.90;;;;;;5008431;28;20053;-78
2024/01/14 07:29:21;;;;;;;33.25;16.65;;;-1.70;99.90;;;;;;5011085;28;20415;-79
2024/01/14 07:31:47;;;;;;;27.08;14.90;;;-1.70;99.90;;;;;;5011493;28;20026;-80
2024/01/14 07:34:12;;;;;;;29.33;16.20;;;-1.70;99.90;;;;;;5011603;28;20022;-79
2024/01/14 07:36:38;;;;;;;32.35;15.30;;;-1.70;99.90;;;;;;5014361;28;20026;-79
2024/01/14 07:39:04;;;;;;;37.50;16.77;;;-1.60;99.90;;;;;;5023949;28;20459;-79
2024/01/14 07:41:30;;;;;;;29.83;15.95;;;-1.60;99.90;;;;;;5021946;28;20498;-79
2024/01/14 07:43:56;;;;;;;50.88;23.88;;;-1.60;99.90;;;;;;5021610;28;20065;-78
2024/01/14 07:46:22;;;;;;;46.60;23.15;;;-1.50;99.90;;;;;;5011079;28;20437;-78
2024/01/14 07:48:47;;;;;;;34.13;17.70;;;-1.50;99.90;;;;;;5012461;28;20022;-79
2024/01/14 07:51:13;;;;;;;32.58;16.38;;;-1.60;99.90;;;;;;5027089;28;20526;-79
2024/01/14 07:53:39;;;;;;;38.85;19.27;;;-1.60;99.90;;;;;;5016745;28;20026;-78
2024/01/14 07:56:05;;;;;;;34.78;17.73;;;-1.60;99.90;;;;;;5011870;28;20030;-79
2024/01/14 07:58:30;;;;;;;27.50;14.70;;;-1.60;99.90;;;;;;5014724;28;20385;-79
2024/01/14 08:00:56;;;;;;;33.85;15.45;;;-1.50;99.90;;;;;;5008767;28;20087;-78
2024/01/14 08:03:22;;;;;;;31.85;17.17;;;-1.50;99.90;;;;;;5010173;28;20037;-80
2024/01/14 08:05:47;;;;;;;33.78;17.05;;;-1.50;99.90;;;;;;5013017;28;20087;-79
2024/01/14 08:08:13;;;;;;;28.08;15.35;;;-1.50;99.90;;;;;;5022163;28;20163;-78
2024/01/14 08:10:39;;;;;;;28.88;14.70;;;-1.50;99.90;;;;;;5007639;28;20026;-79
2024/01/14 08:13:05;;;;;;;29.00;15.25;;;-1.50;99.90;;;;;;5007375;28;20026;-78
2024/01/14 08:15:30;;;;;;;31.20;16.98;;;-1.50;99.90;;;;;;5012736;28;20030;-77
2024/01/14 08:17:56;;;;;;;25.60;15.52;;;-1.50;99.90;;;;;;5018778;28;20045;-78
2024/01/14 08:20:22;;;;;;;32.30;17.00;;;-1.50;99.90;;;;;;5015382;28;20075;-78
2024/01/14 08:22:48;;;;;;;29.45;15.30;;;-1.50;99.90;;;;;;5012368;28;20029;-79
2024/01/14 08:25:13;;;;;;;27.17;14.80;;;-1.50;99.90;;;;;;5027516;28;20033;-79
2024/01/14 08:27:40;;;;;;;29.92;16.38;;;-1.50;99.90;;;;;;5004616;28;20040;-80
2024/01/14 08:30:06;;;;;;;28.90;15.30;;;-1.50;99.90;;;;;;5021154;28;20014;-80
2024/01/14 08:32:32;;;;;;;30.20;17.60;;;-1.50;99.90;;;;;;5019054;28;20391;-79
2024/01/14 08:34:58;;;;;;;30.80;15.70;;;-1.50;99.90;;;;;;5017694;28;20022;-80
2024/01/14 08:37:24;;;;;;;28.02;17.02;;;-1.50;99.90;;;;;;5014002;28;20038;-79
2024/01/14 08:39:50;;;;;;;36.42;17.00;;;-1.50;99.90;;;;;;5017663;28;20033;-79
2024/01/14 08:42:17;;;;;;;31.80;14.93;;;-1.40;99.90;;;;;;5013196;28;20033;-79
2024/01/14 08:44:42;;;;;;;34.65;17.13;;;-1.40;99.90;;;;;;5018419;28;20025;-79
2024/01/14 08:47:08;;;;;;;92.15;38.65;;;-1.40;99.90;;;;;;5017484;28;20478;-79
2024/01/14 08:49:34;;;;;;;83.30;32.05;;;-1.50;99.90;;;;;;5002842;28;20029;-79
2024/01/14 08:52:01;;;;;;;37.47;18.27;;;-1.50;99.90;;;;;;5012885;28;20036;-79
2024/01/14 08:54:33;;;;;;;27.55;16.45;;;-1.50;99.90;;;;;;5015939;28;20125;-79
2024/01/14 08:56:58;;;;;;;31.45;18.73;;;-1.40;99.90;;;;;;5013911;28;20062;-78
2024/01/14 08:59:24;;;;;;;29.80;16.05;;;-1.40;99.90;;;;;;5019694;28;20060;-80
2024/01/14 09:01:50;;;;;;;96.20;39.95;;;-1.40;99.90;;;;;;5025185;28;20022;-78
2024/01/14 09:04:15;;;;;;;35.50;17.42;;;-1.40;99.90;;;;;;5027601;28;20061;-78
2024/01/14 09:06:42;;;;;;;38.30;18.38;;;-1.40;99.90;;;;;;5013543;28;20014;-79
2024/01/14 09:09:07;;;;;;;66.05;30.00;;;-1.30;99.90;;;;;;5015662;28;20018;-79
2024/01/14 09:11:33;;;;;;;112.35;44.72;;;-1.30;99.90;;;;;;5019514;28;20368;-79
2024/01/14 09:13:59;;;;;;;55.72;25.50;;;-1.30;99.90;;;;;;5016839;28;20025;-79
2024/01/14 09:16:25;;;;;;;51.70;22.85;;;-1.30;99.90;;;;;;5015303;28;20395;-79
2024/01/14 09:18:50;;;;;;;62.08;25.08;;;-1.30;99.90;;;;;;5010682;28;20055;-80
2024/01/14 09:21:17;;;;;;;40.67;19.88;;;-1.20;99.90;;;;;;5012010;28;20037;-80
2024/01/14 09:23:42;;;;;;;35.53;18.33;;;-1.20;99.90;;;;;;5015745;28;20017;-79
2024/01/14 09:26:08;;;;;;;49.65;21.17;;;-1.20;99.90;;;;;;5012936;28;20036;-79
2024/01/14 09:28:36;;;;;;;46.88;21.75;;;-1.20;99.90;;;;;;5010230;28;20034;-79
2024/01/14 09:31:02;;;;;;;39.40;19.88;;;-1.20;99.90;;;;;;5027713;28;20021;-79
2024/01/14 09:33:28;;;;;;;61.47;27.33;;;-1.20;99.90;;;;;;5019048;28;20045;-80
2024/01/14 09:35:55;;;;;;;61.05;26.45;;;-1.10;99.90;;;;;;5014029;28;20098;-81
2024/01/14 09:38:22;;;;;;;66.85;28.02;;;-1.10;99.90;;;;;;5015842;28;20045;-79
2024/01/14 09:41:00;;;;;;;53.90;26.45;;;-1.10;99.90;;;;;;5018650;28;20053;-79
2024/01/14 09:43:30;;;;;;;40.92;22.55;;;-1.00;99.90;;;;;;5003209;28;20483;-82
2024/01/14 09:45:56;;;;;;;42.38;18.95;;;-1.00;99.90;;;;;;5007288;28;20018;-80
2024/01/14 09:48:22;;;;;;;38.70;19.77;;;-1.00;99.90;;;;;;5014564;28;20141;-77
2024/01/14 09:50:49;;;;;;;40.45;20.40;;;-0.90;99.90;;;;;;5012765;28;20053;-79
2024/01/14 09:53:16;;;;;;;99.88;39.85;;;-1.00;99.90;;;;;;5011469;28;20467;-79
2024/01/14 09:55:42;;;;;;;59.85;27.52;;;-0.90;99.90;;;;;;5018058;28;20025;-79
2024/01/14 09:58:12;;;;;;;59.67;31.90;;;-0.90;99.90;;;;;;5004779;28;20030;-81
2024/01/14 10:00:40;;;;;;;93.35;38.83;;;-0.90;99.90;;;;;;5004277;28;20094;-80
2024/01/14 10:03:06;;;;;;;63.95;29.17;;;-0.80;99.90;;;;;;5008856;28;20030;-80
2024/01/14 10:05:37;;;;;;;82.82;32.15;;;-0.80;99.90;;;;;;5007694;28;20484;-78
2024/01/14 10:08:03;;;;;;;54.78;25.40;;;-0.80;99.90;;;;;;5006206;28;20030;-80
2024/01/14 10:10:31;;;;;;;66.78;28.33;;;-0.80;99.90;;;;;;5006416;28;20034;-77
2024/01/14 10:12:57;;;;;;;69.55;29.55;;;-0.80;99.90;;;;;;5013039;28;20022;-77
2024/01/14 10:15:22;;;;;;;46.15;21.48;;;-0.60;99.90;;;;;;5007399;28;20070;-81
2024/01/14 10:17:48;;;;;;;44.60;19.95;;;-0.60;99.90;;;;;;5009336;28;20053;-82
2024/01/14 10:20:14;;;;;;;42.28;21.70;;;-0.60;99.90;;;;;;5003371;28;20912;-78
2024/01/14 10:22:43;;;;;;;49.90;23.08;;;-0.60;99.90;;;;;;5004474;28;20528;-80
2024/01/14 10:25:08;;;;;;;41.70;20.25;;;-0.50;99.90;;;;;;5008992;28;20025;-79
2024/01/14 10:27:34;;;;;;;45.47;23.63;;;-0.60;99.90;;;;;;5013535;28;20029;-79
2024/01/14 10:30:00;;;;;;;50.13;24.83;;;-0.50;99.90;;;;;;5009214;28;20026;-79
2024/01/14 10:32:26;;;;;;;52.25;24.77;;;-0.50;99.90;;;;;;5021338;28;20030;-81
2024/01/14 10:34:52;;;;;;;37.97;20.38;;;-0.50;99.90;;;;;;5014236;28;20041;-79
2024/01/14 10:37:22;;;;;;;46.83;24.33;;;-0.40;99.90;;;;;;5015136;28;20048;-78
2024/01/14 10:39:50;;;;;;;45.67;21.98;;;-0.40;99.90;;;;;;5005191;28;20037;-80
2024/01/14 10:42:16;;;;;;;49.00;26.20;;;-0.40;99.90;;;;;;5005096;28;20073;-78
2024/01/14 10:44:42;;;;;;;52.42;26.90;;;-0.50;99.90;;;;;;5013572;28;20030;-79
2024/01/14 10:47:10;;;;;;;56.55;29.40;;;-0.50;99.90;;;;;;5025097;28;20038;-80
2024/01/14 10:49:40;;;;;;;73.40;34.63;;;-0.50;99.90;;;;;;5020592;28;20025;-81
2024/01/14 10:52:10;;;;;;;56.78;26.92;;;-0.40;99.90;;;;;;5013915;28;20056;-80
2024/01/14 10:54:52;;;;;;;77.93;35.13;;;-0.40;99.90;;;;;;5009424;28;20104;-80
2024/01/14 10:57:37;;;;;;;73.97;34.45;;;-0.40;99.90;;;;;;5023900;28;20052;-79
2024/01/14 11:00:05;;;;;;;60.28;28.80;;;-0.40;99.90;;;;;;4998258;28;20111;-78
2024/01/14 11:02:33;;;;;;;53.90;26.38;;;-0.40;99.90;;;;;;5011185;28;20046;-79
2024/01/14 11:04:59;;;;;;;56.63;25.95;;;-0.40;99.90;;;;;;5000046;28;20048;-79
2024/01/14 11:07:25;;;;;;;74.50;34.65;;;-0.40;99.90;;;;;;4998055;28;20029;-79
2024/01/14 11:09:53;;;;;;;50.22;27.42;;;-0.30;99.90;;;;;;5006430;28;20370;-80
2024/01/14 11:12:31;;;;;;;95.45;40.22;;;-0.30;99.90;;;;;;4996882;28;20034;-79
2024/01/14 11:15:16;;;;;;;53.08;24.48;;;-0.10;99.90;;;;;;5009087;28;20033;-79
2024/01/14 11:18:03;;;;;;;48.30;23.25;;;-0.10;99.90;;;;;;5011461;28;20406;-78
2024/01/14 11:20:32;;;;;;;42.45;22.08;;;-0.10;99.90;;;;;;5000070;28;20491;-80
2024/01/14 11:22:57;;;;;;;77.35;32.72;;;-0.10;99.90;;;;;;5004342;28;20034;-78
2024/01/14 11:25:33;;;;;;;60.72;25.83;;;-0.10;99.90;;;;;;5007895;28;20479;-79
2024/01/14 11:28:05;;;;;;;87.22;40.70;;;-0.10;99.90;;;;;;5005175;28;20489;-78
2024/01/14 11:31:09;;;;;;;65.53;34.00;;;-0.10;99.90;;;;;;5002460;28;20113;-76
2024/01/14 11:33:41;;;;;;;77.68;33.22;;;-0.10;99.90;;;;;;5050852;28;20440;-77
2024/01/14 11:36:08;;;;;;;82.13;35.17;;;0.00;99.90;;;;;;5066564;28;20024;-77
2024/01/14 11:38:34;;;;;;;84.07;39.08;;;0.00;99.90;;;;;;5027307;28;20052;-76
2024/01/14 11:41:29;;;;;;;90.05;35.55;;;0.00;99.90;;;;;;5012863;28;20015;-76
2024/01/14 11:44:02;;;;;;;79.50;35.45;;;0.00;99.90;;;;;;5011934;28;20075;-77
2024/01/14 11:46:37;;;;;;;82.32;35.85;;;0.10;99.90;;;;;;5022775;28;20025;-77
2024/01/14 11:49:06;;;;;;;83.18;36.63;;;0.10;99.90;;;;;;5004562;28;20075;-77
2024/01/14 11:51:34;;;;;;;87.13;39.42;;;0.10;99.90;;;;;;5015927;28;20017;-77
2024/01/14 11:54:07;;;;;;;110.07;44.95;;;0.00;99.90;;;;;;5015352;28;20018;-77
2024/01/14 11:56:32;;;;;;;75.95;33.47;;;0.00;99.90;;;;;;5005845;28;20049;-78
2024/01/14 11:58:59;;;;;;;88.47;40.05;;;0.00;99.90;;;;;;5007195;28;20472;-77
2024/01/14 12:01:30;;;;;;;82.45;39.92;;;0.00;99.90;;;;;;5007761;28;20018;-77
2024/01/14 12:04:02;;;;;;;95.80;42.88;;;0.00;99.90;;;;;;4994086;28;20066;-77
2024/01/14 12:06:36;;;;;;;78.27;35.37;;;0.00;99.90;;;;;;5002842;28;20030;-77
2024/01/14 12:09:02;;;;;;;99.95;41.17;;;-0.10;99.90;;;;;;5009889;28;20028;-77
2024/01/14 12:11:28;;;;;;;95.43;45.75;;;-0.10;99.90;;;;;;5015896;28;20419;-77
2024/01/14 12:13:54;;;;;;;104.38;40.75;;;-0.20;99.90;;;;;;5011038;28;20046;-78
2024/01/14 12:16:19;;;;;;;69.70;32.72;;;-0.20;99.90;;;;;;5012729;28;20060;-78
2024/01/14 12:18:45;;;;;;;78.63;35.00;;;-0.20;99.90;;;;;;5018197;28;20538;-78
2024/01/14 12:21:14;;;;;;;97.40;45.55;;;-0.20;99.90;;;;;;5009841;28;20033;-77
2024/01/14 12:23:40;;;;;;;134.55;51.28;;;-0.20;99.90;;;;;;5011562;28;20441;-77
2024/01/14 12:26:06;;;;;;;102.25;39.42;;;-0.30;99.90;;;;;;5009237;28;20018;-77